sensor_id;sensor_type;location;lat;lon;timestamp;P1;durP1;ratioP1;P2;durP2;ratioP2
43861;SDS011;29510;52.140;5.034;2023-03-12T00:02:14;4.72;;;1.98;;
43861;SDS011;29510;52.140;5.034;2023-03-12T00:12:15;7.55;;;2.92;;
43861;SDS011;29510;52.140;5.034;2023-03-12T00:22:17;2.95;;;1.80;;
43861;SDS011;29510;52.140;5.034;2023-03-12T00:32:22;6.40;;;2.30;;
43861;SDS011;29510;52.140;5.034;2023-03-12T00:42:23;3.47;;;2.42;;
43861;SDS011;29510;52.140;5.034;2023-03-12T00:52:24;3.40;;;1.60;;
43861;SDS011;29510;52.140;5.034;2023-03-12T01:02:25;3.15;;;1.98;;
43861;SDS011;29510;52.140;5.034;2023-03-12T01:12:26;3.80;;;1.67;;
43861;SDS011;29510;52.140;5.034;2023-03-12T01:22:27;3.80;;;2.03;;
43861;SDS011;29510;52.140;5.034;2023-03-12T01:32:29;4.15;;;1.50;;
43861;SDS011;29510;52.140;5.034;2023-03-12T01:42:30;5.43;;;2.42;;
43861;SDS011;29510;52.140;5.034;2023-03-12T01:52:31;3.55;;;2.22;;
43861;SDS011;29510;52.140;5.034;2023-03-12T02:02:35;3.17;;;1.85;;
43861;SDS011;29510;52.140;5.034;2023-03-12T02:12:37;3.97;;;2.10;;
43861;SDS011;29510;52.140;5.034;2023-03-12T02:22:40;2.40;;;1.00;;
43861;SDS011;29510;52.140;5.034;2023-03-12T02:32:44;4.97;;;2.78;;
43861;SDS011;29510;52.140;5.034;2023-03-12T02:42:47;3.40;;;2.03;;
43861;SDS011;29510;52.140;5.034;2023-03-12T02:52:49;9.77;;;2.50;;
43861;SDS011;29510;52.140;5.034;2023-03-12T03:02:50;8.02;;;2.83;;
43861;SDS011;29510;52.140;5.034;2023-03-12T03:12:51;8.70;;;2.88;;
43861;SDS011;29510;52.140;5.034;2023-03-12T03:22:52;9.15;;;2.17;;
43861;SDS011;29510;52.140;5.034;2023-03-12T03:43:04;3.92;;;2.05;;
43861;SDS011;29510;52.140;5.034;2023-03-12T03:53:06;4.15;;;1.30;;
43861;SDS011;29510;52.140;5.034;2023-03-12T04:03:08;3.72;;;2.22;;
43861;SDS011;29510;52.140;5.034;2023-03-12T04:13:09;4.53;;;1.45;;
43861;SDS011;29510;52.140;5.034;2023-03-12T04:23:10;5.38;;;1.88;;
43861;SDS011;29510;52.140;5.034;2023-03-12T04:33:11;2.30;;;1.45;;
43861;SDS011;29510;52.140;5.034;2023-03-12T04:43:12;2.83;;;1.60;;
43861;SDS011;29510;52.140;5.034;2023-03-12T04:53:13;3.00;;;1.35;;
43861;SDS011;29510;52.140;5.034;2023-03-12T05:03:15;2.47;;;1.40;;
43861;SDS011;29510;52.140;5.034;2023-03-12T05:13:18;2.92;;;1.45;;
43861;SDS011;29510;52.140;5.034;2023-03-12T05:23:21;5.70;;;2.70;;
43861;SDS011;29510;52.140;5.034;2023-03-12T05:33:22;3.60;;;2.00;;
43861;SDS011;29510;52.140;5.034;2023-03-12T05:43:24;3.97;;;1.52;;
43861;SDS011;29510;52.140;5.034;2023-03-12T05:53:26;4.70;;;2.50;;
43861;SDS011;29510;52.140;5.034;2023-03-12T06:03:27;5.50;;;2.00;;
43861;SDS011;29510;52.140;5.034;2023-03-12T06:13:28;5.15;;;2.10;;
43861;SDS011;29510;52.140;5.034;2023-03-12T06:23:30;4.72;;;2.15;;
43861;SDS011;29510;52.140;5.034;2023-03-12T06:33:31;5.70;;;1.98;;
43861;SDS011;29510;52.140;5.034;2023-03-12T06:43:33;7.20;;;3.17;;
43861;SDS011;29510;52.140;5.034;2023-03-12T06:53:35;6.00;;;3.92;;
43861;SDS011;29510;52.140;5.034;2023-03-12T07:03:37;5.93;;;3.65;;
43861;SDS011;29510;52.140;5.034;2023-03-12T07:13:38;6.95;;;3.75;;
43861;SDS011;29510;52.140;5.034;2023-03-12T07:23:39;11.13;;;4.65;;
43861;SDS011;29510;52.140;5.034;2023-03-12T07:33:40;6.10;;;3.40;;
43861;SDS011;29510;52.140;5.034;2023-03-12T07:43:41;7.28;;;3.55;;
43861;SDS011;29510;52.140;5.034;2023-03-12T07:53:42;34.63;;;4.82;;
43861;SDS011;29510;52.140;5.034;2023-03-12T08:03:43;8.63;;;3.33;;
43861;SDS011;29510;52.140;5.034;2023-03-12T08:13:44;6.93;;;3.72;;
43861;SDS011;29510;52.140;5.034;2023-03-12T08:23:45;28.20;;;6.35;;
43861;SDS011;29510;52.140;5.034;2023-03-12T08:33:46;8.25;;;4.57;;
43861;SDS011;29510;52.140;5.034;2023-03-12T08:43:48;15.55;;;6.25;;
43861;SDS011;29510;52.140;5.034;2023-03-12T08:53:49;14.70;;;6.32;;
43861;SDS011;29510;52.140;5.034;2023-03-12T09:03:50;12.10;;;6.18;;
43861;SDS011;29510;52.140;5.034;2023-03-12T09:13:53;10.50;;;6.50;;
43861;SDS011;29510;52.140;5.034;2023-03-12T09:23:55;12.50;;;6.95;;
43861;SDS011;29510;52.140;5.034;2023-03-12T09:33:56;23.65;;;10.98;;
43861;SDS011;29510;52.140;5.034;2023-03-12T09:44:00;19.58;;;9.25;;
43861;SDS011;29510;52.140;5.034;2023-03-12T09:54:13;11.13;;;6.53;;
43861;SDS011;29510;52.140;5.034;2023-03-12T10:35:19;13.75;;;5.75;;
43861;SDS011;29510;52.140;5.034;2023-03-12T10:55:43;10.50;;;5.90;;
43861;SDS011;29510;52.140;5.034;2023-03-12T11:06:02;9.77;;;5.30;;
43861;SDS011;29510;52.140;5.034;2023-03-12T11:26:17;11.05;;;4.53;;
43861;SDS011;29510;52.140;5.034;2023-03-12T11:36:28;37.50;;;7.53;;
43861;SDS011;29510;52.140;5.034;2023-03-12T11:46:37;14.48;;;4.22;;
43861;SDS011;29510;52.140;5.034;2023-03-12T11:57:01;8.75;;;2.65;;
43861;SDS011;29510;52.140;5.034;2023-03-12T12:27:47;9.57;;;3.38;;
43861;SDS011;29510;52.140;5.034;2023-03-12T12:48:05;10.38;;;3.20;;
43861;SDS011;29510;52.140;5.034;2023-03-12T12:58:33;18.02;;;4.93;;
43861;SDS011;29510;52.140;5.034;2023-03-12T13:08:59;13.57;;;3.65;;
43861;SDS011;29510;52.140;5.034;2023-03-12T13:29:19;10.45;;;4.07;;
43861;SDS011;29510;52.140;5.034;2023-03-12T13:39:32;7.97;;;2.43;;
43861;SDS011;29510;52.140;5.034;2023-03-12T13:49:41;7.30;;;1.70;;
43861;SDS011;29510;52.140;5.034;2023-03-12T13:59:45;8.35;;;2.42;;
43861;SDS011;29510;52.140;5.034;2023-03-12T14:09:56;5.20;;;2.55;;
43861;SDS011;29510;52.140;5.034;2023-03-12T14:20:11;6.32;;;1.77;;
43861;SDS011;29510;52.140;5.034;2023-03-12T14:30:19;7.32;;;2.42;;
43861;SDS011;29510;52.140;5.034;2023-03-12T14:40:34;5.88;;;2.22;;
43861;SDS011;29510;52.140;5.034;2023-03-12T14:50:44;12.23;;;3.47;;
43861;SDS011;29510;52.140;5.034;2023-03-12T15:00:53;10.18;;;2.83;;
43861;SDS011;29510;52.140;5.034;2023-03-12T15:11:04;5.47;;;2.05;;
43861;SDS011;29510;52.140;5.034;2023-03-12T15:21:06;5.47;;;2.33;;
43861;SDS011;29510;52.140;5.034;2023-03-12T15:31:08;6.28;;;2.58;;
43861;SDS011;29510;52.140;5.034;2023-03-12T15:41:17;12.18;;;3.05;;
43861;SDS011;29510;52.140;5.034;2023-03-12T15:51:55;6.03;;;2.83;;
43861;SDS011;29510;52.140;5.034;2023-03-12T16:02:32;12.82;;;3.17;;
43861;SDS011;29510;52.140;5.034;2023-03-12T16:12:40;7.82;;;3.30;;
43861;SDS011;29510;52.140;5.034;2023-03-12T16:22:43;11.48;;;4.13;;
43861;SDS011;29510;52.140;5.034;2023-03-12T16:32:44;13.60;;;4.15;;
43861;SDS011;29510;52.140;5.034;2023-03-12T16:42:47;3.90;;;1.75;;
43861;SDS011;29510;52.140;5.034;2023-03-12T16:52:49;13.88;;;4.40;;
43861;SDS011;29510;52.140;5.034;2023-03-12T17:02:51;20.25;;;4.53;;
43861;SDS011;29510;52.140;5.034;2023-03-12T17:12:57;10.38;;;3.50;;
43861;SDS011;29510;52.140;5.034;2023-03-12T17:22:58;9.45;;;3.15;;
43861;SDS011;29510;52.140;5.034;2023-03-12T17:33:09;8.23;;;3.20;;
43861;SDS011;29510;52.140;5.034;2023-03-12T17:43:12;5.03;;;2.08;;
43861;SDS011;29510;52.140;5.034;2023-03-12T17:53:13;7.40;;;2.88;;
43861;SDS011;29510;52.140;5.034;2023-03-12T18:03:16;6.68;;;1.38;;
43861;SDS011;29510;52.140;5.034;2023-03-12T18:13:17;4.10;;;2.05;;
43861;SDS011;29510;52.140;5.034;2023-03-12T18:23:18;5.70;;;1.50;;
43861;SDS011;29510;52.140;5.034;2023-03-12T18:33:20;4.13;;;0.85;;
43861;SDS011;29510;52.140;5.034;2023-03-12T18:43:21;4.50;;;1.65;;
43861;SDS011;29510;52.140;5.034;2023-03-12T18:53:22;14.43;;;1.80;;
43861;SDS011;29510;52.140;5.034;2023-03-12T19:03:24;4.47;;;1.00;;
43861;SDS011;29510;52.140;5.034;2023-03-12T19:13:26;5.30;;;1.38;;
43861;SDS011;29510;52.140;5.034;2023-03-12T19:23:27;5.20;;;1.20;;
43861;SDS011;29510;52.140;5.034;2023-03-12T19:33:28;7.57;;;1.92;;
43861;SDS011;29510;52.140;5.034;2023-03-12T19:43:30;3.70;;;1.52;;
43861;SDS011;29510;52.140;5.034;2023-03-12T19:53:31;5.05;;;1.15;;
43861;SDS011;29510;52.140;5.034;2023-03-12T20:03:32;4.95;;;1.92;;
43861;SDS011;29510;52.140;5.034;2023-03-12T20:13:34;7.35;;;2.40;;
43861;SDS011;29510;52.140;5.034;2023-03-12T20:23:38;2.92;;;1.40;;
43861;SDS011;29510;52.140;5.034;2023-03-12T20:33:39;3.88;;;1.65;;
43861;SDS011;29510;52.140;5.034;2023-03-12T20:43:41;13.52;;;3.83;;
43861;SDS011;29510;52.140;5.034;2023-03-12T20:53:43;16.92;;;3.55;;
43861;SDS011;29510;52.140;5.034;2023-03-12T21:03:44;5.43;;;2.67;;
43861;SDS011;29510;52.140;5.034;2023-03-12T21:13:45;5.20;;;1.50;;
43861;SDS011;29510;52.140;5.034;2023-03-12T21:23:46;5.43;;;1.60;;
43861;SDS011;29510;52.140;5.034;2023-03-12T21:33:48;4.40;;;2.15;;
43861;SDS011;29510;52.140;5.034;2023-03-12T21:43:49;5.20;;;2.40;;
43861;SDS011;29510;52.140;5.034;2023-03-12T21:53:53;3.92;;;1.83;;
43861;SDS011;29510;52.140;5.034;2023-03-12T22:03:57;19.50;;;3.33;;
43861;SDS011;29510;52.140;5.034;2023-03-12T22:13:58;5.80;;;1.75;;
43861;SDS011;29510;52.140;5.034;2023-03-12T22:24:00;12.85;;;4.50;;
43861;SDS011;29510;52.140;5.034;2023-03-12T22:34:01;6.80;;;2.22;;
43861;SDS011;29510;52.140;5.034;2023-03-12T22:44:04;10.02;;;2.60;;
43861;SDS011;29510;52.140;5.034;2023-03-12T22:54:06;5.65;;;2.10;;
43861;SDS011;29510;52.140;5.034;2023-03-12T23:04:07;10.27;;;1.90;;
43861;SDS011;29510;52.140;5.034;2023-03-12T23:14:08;7.32;;;1.95;;
43861;SDS011;29510;52.140;5.034;2023-03-12T23:24:09;8.30;;;3.13;;
43861;SDS011;29510;52.140;5.034;2023-03-12T23:34:10;12.52;;;3.40;;
43861;SDS011;29510;52.140;5.034;2023-03-12T23:44:11;10.88;;;3.15;;
43861;SDS011;29510;52.140;5.034;2023-03-12T23:54:13;7.80;;;4.03;;
